Time;durP1;ratioP1;P1;durP2;ratioP2;P2;SDS_P1;SDS_P2;PMS_P1;PMS_P2;Temp;Humidity;BMP_temperature;BMP_pressure;BME280_temperature;BME280_humidity;BME280_pressure;Samples;Min_cycle;Max_cycle;Signal;HPM_P1;HPM_P2
2022/10/02 00:02:29;;;;;;;1.52;1.20;;;15.60;81.20;;;;;;5037469;28;20078;-71
2022/10/02 00:05:15;;;;;;;4.13;1.65;;;15.60;81.20;;;;;;5054854;28;20025;-73
2022/10/02 00:07:58;;;;;;;2.38;1.40;;;15.60;80.90;;;;;;5062086;28;20062;-70
2022/10/02 00:10:27;;;;;;;;;;;15.60;81.00;;;;;;5056530;28;20021;-73
2022/10/02 00:12:59;;;;;;;2.60;1.10;;;15.60;81.10;;;;;;5055499;28;20035;-72
2022/10/02 00:15:32;;;;;;;2.67;0.93;;;15.60;80.90;;;;;;5065067;28;20025;-74
2022/10/02 00:18:03;;;;;;;2.97;1.10;;;15.60;80.60;;;;;;5048632;28;20107;-71
2022/10/02 00:20:44;;;;;;;1.30;0.80;;;15.60;80.40;;;;;;5054073;28;20074;-74
2022/10/02 00:23:18;;;;;;;2.22;0.82;;;15.60;80.20;;;;;;5048178;28;20048;-71
2022/10/02 00:25:55;;;;;;;7.20;1.05;;;15.50;79.90;;;;;;5060419;28;20514;-74
2022/10/02 00:28:30;;;;;;;0.57;0.57;;;15.50;79.80;;;;;;5054431;28;20029;-74
2022/10/02 00:31:22;;;;;;;1.23;0.50;;;15.40;79.80;;;;;;5057248;28;20033;-72
2022/10/02 00:34:06;;;;;;;2.03;0.93;;;15.50;79.60;;;;;;5053126;28;20032;-71
2022/10/02 00:37:02;;;;;;;1.05;0.70;;;15.50;79.40;;;;;;5060302;28;20426;-71
2022/10/02 00:39:54;;;;;;;4.72;0.93;;;15.40;79.40;;;;;;5055004;28;20028;-71
2022/10/02 00:42:28;;;;;;;2.40;0.93;;;15.40;79.40;;;;;;5050290;28;20519;-71
2022/10/02 00:45:16;;;;;;;2.33;0.52;;;15.40;79.30;;;;;;5061665;28;20571;-72
2022/10/02 00:48:26;;;;;;;1.90;0.77;;;15.40;79.30;;;;;;5051839;28;20057;-71
2022/10/02 00:51:10;;;;;;;1.85;0.50;;;15.30;79.20;;;;;;5039770;28;20419;-72
2022/10/02 00:53:57;;;;;;;0.90;0.50;;;15.20;79.30;;;;;;5058030;28;20024;-71
2022/10/02 00:56:29;;;;;;;0.88;0.60;;;15.10;79.30;;;;;;5059934;28;20047;-73
2022/10/02 00:59:21;;;;;;;0.43;0.43;;;15.10;79.30;;;;;;5035919;28;20029;-74
2022/10/02 01:01:48;;;;;;;;;;;15.10;79.20;;;;;;5064850;28;20123;-73
2022/10/02 01:04:19;;;;;;;2.30;0.63;;;15.10;79.30;;;;;;5040316;28;19917;-71
2022/10/02 01:06:45;;;;;;;1.83;0.80;;;15.00;79.30;;;;;;5021798;28;20039;-71
2022/10/02 01:09:11;;;;;;;1.02;0.70;;;15.10;79.30;;;;;;5033406;28;20044;-71
2022/10/02 01:11:37;;;;;;;0.50;0.50;;;15.10;79.20;;;;;;5036359;28;20033;-71
2022/10/02 01:14:04;;;;;;;2.78;1.23;;;15.10;79.10;;;;;;5038398;28;20559;-72
2022/10/02 01:16:31;;;;;;;0.85;0.77;;;15.10;79.10;;;;;;5054051;28;20041;-70
2022/10/02 01:18:57;;;;;;;0.70;0.50;;;15.10;79.00;;;;;;5062162;28;20025;-70
2022/10/02 01:21:35;;;;;;;1.67;0.68;;;15.10;78.90;;;;;;5043746;28;20109;-70
2022/10/02 01:24:15;;;;;;;0.82;0.65;;;15.20;78.70;;;;;;5052990;28;20427;-70
2022/10/02 01:26:41;;;;;;;0.93;0.80;;;15.20;78.70;;;;;;5056457;28;20086;-73
2022/10/02 01:29:07;;;;;;;0.52;0.52;;;15.20;78.70;;;;;;5051809;28;20033;-73
2022/10/02 01:31:35;;;;;;;2.83;0.60;;;15.20;78.80;;;;;;5027449;28;20040;-70
2022/10/02 01:34:01;;;;;;;3.38;1.00;;;15.10;79.00;;;;;;5034566;28;20032;-73
2022/10/02 01:36:27;;;;;;;2.33;0.93;;;15.10;79.20;;;;;;5038494;28;20029;-70
2022/10/02 01:38:54;;;;;;;5.20;1.35;;;15.10;79.60;;;;;;5034818;28;20061;-71
2022/10/02 01:41:19;;;;;;;1.67;1.05;;;15.10;79.60;;;;;;5058333;28;20021;-70
2022/10/02 01:43:50;;;;;;;0.85;0.70;;;15.10;79.70;;;;;;5051259;28;20029;-70
2022/10/02 01:46:25;;;;;;;0.93;0.75;;;15.10;79.80;;;;;;5061488;28;20042;-70
2022/10/02 01:49:30;;;;;;;4.55;0.90;;;15.10;79.90;;;;;;5057396;28;20116;-70
2022/10/02 01:52:48;;;;;;;3.30;1.08;;;15.10;79.90;;;;;;5026185;28;20029;-71
2022/10/02 01:55:33;;;;;;;2.83;0.88;;;15.10;79.90;;;;;;5027374;28;20060;-70
2022/10/02 01:58:20;;;;;;;6.63;1.58;;;15.10;80.20;;;;;;5045133;28;20020;-71
2022/10/02 02:01:04;;;;;;;1.92;1.33;;;15.20;80.20;;;;;;5037233;28;20024;-71
2022/10/02 02:04:13;;;;;;;4.82;1.88;;;15.20;80.40;;;;;;5057265;28;20035;-70
2022/10/02 02:06:51;;;;;;;1.30;1.20;;;15.20;80.50;;;;;;4963835;28;20455;-71
2022/10/02 02:09:48;;;;;;;3.58;1.73;;;15.20;80.60;;;;;;5035235;28;20037;-70
2022/10/02 02:12:17;;;;;;;4.20;1.75;;;15.20;81.00;;;;;;5058888;28;20033;-71
2022/10/02 02:15:07;;;;;;;3.03;1.73;;;15.20;81.40;;;;;;5059461;28;20023;-71
2022/10/02 02:17:59;;;;;;;4.43;2.22;;;15.30;81.50;;;;;;5057205;28;20047;-74
2022/10/02 02:20:34;;;;;;;5.72;2.10;;;15.20;81.80;;;;;;5027851;28;20051;-74
2022/10/02 02:23:07;;;;;;;4.05;2.08;;;15.20;81.90;;;;;;5032578;28;20055;-74
2022/10/02 02:25:36;;;;;;;;;;;15.30;81.90;;;;;;5057709;28;20021;-74
2022/10/02 02:28:06;;;;;;;4.38;2.00;;;15.30;81.90;;;;;;5054542;28;19914;-74
2022/10/02 02:30:34;;;;;;;7.45;2.42;;;15.30;81.90;;;;;;5036379;28;20048;-74
2022/10/02 02:33:31;;;;;;;2.33;1.70;;;15.30;82.20;;;;;;5056653;28;20060;-75
2022/10/02 02:36:03;;;;;;;5.00;2.35;;;15.30;82.10;;;;;;5050779;28;20025;-74
2022/10/02 02:38:38;;;;;;;8.40;2.53;;;15.30;82.30;;;;;;5057036;28;20025;-71
2022/10/02 02:41:08;;;;;;;6.93;2.00;;;15.30;82.30;;;;;;5056557;28;20104;-72
2022/10/02 02:44:10;;;;;;;4.72;2.53;;;15.30;82.40;;;;;;5054076;28;20020;-70
2022/10/02 02:47:04;;;;;;;4.28;2.05;;;15.30;82.60;;;;;;5012879;28;20049;-75
2022/10/02 02:50:01;;;;;;;6.97;2.13;;;15.30;82.70;;;;;;5041547;28;20121;-72
2022/10/02 02:52:47;;;;;;;4.50;2.72;;;15.30;83.00;;;;;;5050531;28;20049;-71
2022/10/02 02:55:24;;;;;;;3.42;1.67;;;15.30;83.10;;;;;;5040897;28;20519;-74
2022/10/02 02:58:43;;;;;;;6.07;1.92;;;15.20;83.10;;;;;;5062153;28;20032;-74
2022/10/02 03:01:09;;;;;;;3.42;2.42;;;15.20;83.10;;;;;;4999822;28;20545;-74
2022/10/02 03:03:35;;;;;;;2.85;2.30;;;15.20;83.20;;;;;;4989242;28;20038;-74
2022/10/02 03:06:30;;;;;;;4.63;2.42;;;15.20;83.40;;;;;;5019648;28;20110;-74
2022/10/02 03:08:57;;;;;;;4.95;2.00;;;15.20;83.40;;;;;;5056638;28;20040;-71
2022/10/02 03:12:19;;;;;;;3.63;1.65;;;15.10;83.50;;;;;;5053327;28;20037;-71
2022/10/02 03:15:14;;;;;;;4.40;1.92;;;15.10;83.20;;;;;;4969603;28;20466;-72
2022/10/02 03:17:59;;;;;;;5.85;2.22;;;15.10;83.20;;;;;;4967169;28;20060;-76
2022/10/02 03:20:40;;;;;;;8.38;2.50;;;15.10;83.40;;;;;;5048154;28;20123;-70
2022/10/02 03:23:21;;;;;;;6.22;2.38;;;15.10;83.60;;;;;;5047995;28;20496;-70
2022/10/02 03:25:58;;;;;;;3.83;1.83;;;15.10;83.70;;;;;;5052719;28;20373;-73
2022/10/02 03:28:31;;;;;;;3.08;1.80;;;15.10;83.60;;;;;;5059121;28;20024;-73
2022/10/02 03:30:58;;;;;;;3.28;1.58;;;15.10;83.50;;;;;;5050350;28;20048;-73
2022/10/02 03:33:25;;;;;;;5.35;2.30;;;15.10;83.40;;;;;;5051050;28;20068;-73
2022/10/02 03:35:52;;;;;;;5.65;1.95;;;15.00;83.30;;;;;;5051945;28;20480;-73
2022/10/02 03:38:20;;;;;;;3.95;1.70;;;15.10;83.20;;;;;;5050145;28;20033;-73
2022/10/02 03:40:45;;;;;;;7.05;1.70;;;15.10;83.20;;;;;;5052650;28;20480;-73
2022/10/02 03:43:22;;;;;;;4.68;1.88;;;15.00;83.30;;;;;;5052998;28;20040;-73
2022/10/02 03:45:48;;;;;;;6.13;2.50;;;15.00;83.50;;;;;;5053449;28;20036;-73
2022/10/02 03:48:14;;;;;;;4.88;1.63;;;14.90;83.60;;;;;;5035265;28;20044;-73
2022/10/02 03:50:40;;;;;;;4.30;1.88;;;14.90;83.60;;;;;;5064852;28;20036;-73
2022/10/02 03:53:24;;;;;;;3.10;1.75;;;14.90;83.80;;;;;;5055491;28;20077;-74
2022/10/02 03:56:05;;;;;;;7.28;1.98;;;14.90;83.80;;;;;;5035154;28;20024;-75
2022/10/02 03:58:32;;;;;;;3.00;1.95;;;15.00;83.90;;;;;;5048591;28;20457;-74
2022/10/02 04:01:22;;;;;;;2.30;1.60;;;14.90;84.00;;;;;;5055546;28;20543;-74
2022/10/02 04:04:20;;;;;;;2.25;1.52;;;15.00;84.00;;;;;;5065006;28;20112;-73
2022/10/02 04:06:50;;;;;;;2.05;1.33;;;15.00;83.80;;;;;;5053653;28;20040;-75
2022/10/02 04:09:34;;;;;;;4.63;1.30;;;15.00;84.00;;;;;;5062066;28;20029;-71
2022/10/02 04:12:39;;;;;;;1.80;1.27;;;15.00;83.90;;;;;;5040239;28;20032;-71
2022/10/02 04:16:01;;;;;;;3.30;1.75;;;15.00;83.90;;;;;;5008480;28;20105;-71
2022/10/02 04:18:55;;;;;;;9.37;2.30;;;15.00;84.00;;;;;;4978223;28;20512;-71
2022/10/02 04:21:25;;;;;;;9.60;2.50;;;14.90;84.10;;;;;;4982394;28;20118;-71
2022/10/02 04:24:17;;;;;;;2.05;1.40;;;14.90;84.60;;;;;;5043120;28;20029;-74
2022/10/02 04:26:55;;;;;;;23.02;2.28;;;14.90;84.50;;;;;;5062918;28;20533;-74
2022/10/02 04:29:24;;;;;;;3.92;1.77;;;14.90;84.50;;;;;;5064543;28;21423;-74
2022/10/02 04:32:00;;;;;;;9.75;1.88;;;14.90;84.50;;;;;;5062930;28;20471;-74
2022/10/02 04:34:27;;;;;;;3.58;2.10;;;14.90;84.50;;;;;;5060847;28;20048;-75
2022/10/02 04:37:31;;;;;;;5.00;2.20;;;14.90;84.70;;;;;;5061061;28;20024;-74
2022/10/02 04:40:20;;;;;;;5.35;2.55;;;15.00;84.70;;;;;;5057596;28;20472;-74
2022/10/02 04:42:51;;;;;;;5.90;1.85;;;14.90;84.60;;;;;;5040809;28;20056;-74
2022/10/02 04:45:59;;;;;;;3.65;1.70;;;14.90;84.60;;;;;;5057520;28;20075;-74
2022/10/02 04:48:49;;;;;;;8.63;1.83;;;15.00;84.40;;;;;;5052438;28;20480;-74
2022/10/02 04:51:38;;;;;;;5.78;2.88;;;15.00;84.30;;;;;;5055171;28;20033;-74
2022/10/02 04:54:44;;;;;;;6.57;2.65;;;14.90;84.90;;;;;;5055782;28;20032;-75
2022/10/02 04:57:35;;;;;;;5.63;1.48;;;14.80;85.30;;;;;;4973142;28;20034;-74
2022/10/02 05:00:24;;;;;;;10.23;2.53;;;14.80;85.40;;;;;;4966600;28;20170;-74
2022/10/02 05:02:58;;;;;;;5.65;2.50;;;14.90;85.30;;;;;;5022893;28;20048;-74
2022/10/02 05:05:33;;;;;;;3.65;2.10;;;14.80;85.30;;;;;;5038477;28;20043;-74
2022/10/02 05:08:13;;;;;;;12.38;2.30;;;14.80;85.40;;;;;;5043282;28;20036;-74
2022/10/02 05:10:52;;;;;;;6.43;2.15;;;14.80;85.50;;;;;;5057383;28;20700;-74
2022/10/02 05:13:56;;;;;;;3.03;1.75;;;14.80;85.40;;;;;;5055052;28;20033;-74
2022/10/02 05:16:38;;;;;;;3.78;2.25;;;14.90;85.30;;;;;;5012747;28;20052;-75
2022/10/02 05:19:16;;;;;;;4.07;2.05;;;14.90;85.30;;;;;;5060839;28;20047;-75
2022/10/02 05:22:13;;;;;;;4.30;1.63;;;14.90;85.10;;;;;;5032760;28;20377;-75
2022/10/02 05:24:57;;;;;;;2.55;1.65;;;14.90;85.00;;;;;;5061232;28;20476;-75
2022/10/02 05:27:53;;;;;;;11.75;2.15;;;14.90;85.00;;;;;;5058357;28;20112;-74
2022/10/02 05:30:19;;;;;;;20.80;1.75;;;14.90;85.00;;;;;;5035905;28;20032;-74
2022/10/02 05:33:00;;;;;;;4.35;2.42;;;14.90;85.10;;;;;;5050283;28;20021;-74
2022/10/02 05:35:32;;;;;;;5.28;2.67;;;14.90;85.30;;;;;;5060894;28;20047;-71
2022/10/02 05:38:16;;;;;;;4.38;2.13;;;14.80;85.40;;;;;;5057173;28;20040;-71
2022/10/02 05:40:47;;;;;;;2.40;1.52;;;14.80;85.60;;;;;;5055971;28;20450;-71
2022/10/02 05:43:45;;;;;;;7.63;2.67;;;14.80;85.60;;;;;;5037744;28;20037;-71
2022/10/02 05:46:24;;;;;;;7.90;2.22;;;14.80;85.70;;;;;;5042665;28;20049;-71
2022/10/02 05:48:58;;;;;;;6.43;2.30;;;14.80;85.80;;;;;;5065300;28;20041;-72
2022/10/02 05:52:01;;;;;;;4.53;2.22;;;14.80;85.90;;;;;;5040260;28;20557;-72
2022/10/02 05:54:44;;;;;;;14.65;2.00;;;14.80;85.80;;;;;;5057433;28;20530;-74
2022/10/02 05:57:10;;;;;;;9.10;2.35;;;14.80;85.80;;;;;;5054355;28;20107;-71
2022/10/02 06:00:03;;;;;;;6.60;1.20;;;14.80;85.80;;;;;;5056889;28;20051;-71
2022/10/02 06:02:57;;;;;;;7.80;2.03;;;14.80;85.60;;;;;;5014297;28;20040;-71
2022/10/02 06:05:34;;;;;;;3.25;1.50;;;14.80;85.70;;;;;;5056433;28;20032;-71
2022/10/02 06:08:02;;;;;;;7.47;1.95;;;14.80;85.80;;;;;;5054270;28;20358;-71
2022/10/02 06:10:35;;;;;;;4.20;1.85;;;14.80;85.80;;;;;;5053351;28;20033;-71
2022/10/02 06:13:12;;;;;;;14.52;2.75;;;14.90;85.70;;;;;;5049578;28;20021;-71
2022/10/02 06:15:49;;;;;;;5.95;2.50;;;14.90;85.70;;;;;;5045925;28;20036;-71
2022/10/02 06:18:22;;;;;;;4.43;2.17;;;15.00;85.90;;;;;;5060583;28;20052;-72
2022/10/02 06:20:53;;;;;;;3.75;1.55;;;15.00;85.90;;;;;;5056699;28;20031;-71
2022/10/02 06:23:24;;;;;;;6.30;2.03;;;15.00;85.80;;;;;;5069007;28;20089;-74
2022/10/02 06:25:59;;;;;;;7.22;2.17;;;15.00;86.00;;;;;;5067152;28;20090;-75
2022/10/02 06:28:33;;;;;;;13.80;1.85;;;15.00;86.20;;;;;;5059455;28;20456;-73
2022/10/02 06:31:28;;;;;;;4.55;1.55;;;15.00;86.30;;;;;;5056525;28;20108;-76
2022/10/02 06:33:54;;;;;;;6.18;2.42;;;15.00;86.30;;;;;;5059175;28;20498;-75
2022/10/02 06:36:39;;;;;;;2.70;1.52;;;15.00;86.30;;;;;;5063766;28;20104;-69
2022/10/02 06:39:20;;;;;;;3.30;1.60;;;15.00;86.00;;;;;;5066771;28;20031;-69
2022/10/02 06:41:56;;;;;;;8.23;2.00;;;15.00;86.00;;;;;;5062903;28;20108;-69
2022/10/02 06:44:28;;;;;;;10.80;2.20;;;15.00;86.00;;;;;;5069229;28;20624;-70
2022/10/02 06:47:33;;;;;;;11.45;1.55;;;15.10;85.90;;;;;;5050163;28;20025;-69
2022/10/02 06:50:27;;;;;;;7.20;2.88;;;15.10;85.80;;;;;;5038971;28;20705;-69
2022/10/02 06:53:11;;;;;;;3.70;1.70;;;15.10;85.70;;;;;;5062397;28;20032;-70
2022/10/02 06:55:49;;;;;;;11.15;1.77;;;15.10;85.80;;;;;;5051415;28;20117;-70
2022/10/02 06:59:03;;;;;;;1.27;0.90;;;15.10;85.80;;;;;;5069284;28;20024;-74
2022/10/02 07:01:53;;;;;;;1.70;1.13;;;15.10;86.40;;;;;;4967969;28;20612;-74
2022/10/02 07:04:49;;;;;;;4.00;1.42;;;15.20;85.70;;;;;;4966499;28;20129;-75
2022/10/02 07:07:33;;;;;;;8.13;2.17;;;15.20;85.70;;;;;;5035709;28;20047;-74
2022/10/02 07:10:06;;;;;;;5.53;1.30;;;15.30;85.70;;;;;;5063966;28;20104;-74
2022/10/02 07:12:54;;;;;;;3.75;2.10;;;15.30;85.80;;;;;;5068143;28;20024;-75
2022/10/02 07:15:49;;;;;;;5.25;1.35;;;15.30;85.70;;;;;;5065181;28;20020;-70
2022/10/02 07:18:21;;;;;;;2.72;1.90;;;15.40;85.70;;;;;;5046941;28;20090;-74
2022/10/02 07:21:06;;;;;;;10.07;2.45;;;15.40;85.70;;;;;;5054983;28;20024;-74
2022/10/02 07:23:32;;;;;;;5.35;1.50;;;15.40;85.90;;;;;;5050527;28;20028;-74
2022/10/02 07:26:26;;;;;;;3.03;1.42;;;15.40;86.00;;;;;;5050262;28;20025;-76
2022/10/02 07:29:10;;;;;;;1.58;1.20;;;15.40;86.00;;;;;;5061584;28;20039;-77
2022/10/02 07:31:52;;;;;;;8.45;1.90;;;15.40;86.30;;;;;;5063573;28;20040;-78
2022/10/02 07:34:39;;;;;;;7.33;1.80;;;15.40;86.50;;;;;;5062225;28;20460;-69
2022/10/02 07:37:12;;;;;;;8.05;1.25;;;15.50;86.50;;;;;;5030271;28;20263;-69
2022/10/02 07:39:50;;;;;;;3.30;1.27;;;15.50;86.40;;;;;;5062017;28;20027;-74
2022/10/02 07:42:21;;;;;;;12.20;2.33;;;15.60;86.40;;;;;;5046006;28;20481;-76
2022/10/02 07:45:01;;;;;;;3.07;1.63;;;15.60;86.30;;;;;;5067701;28;20021;-74
2022/10/02 07:47:44;;;;;;;3.05;1.77;;;15.70;86.20;;;;;;5046580;28;20263;-76
2022/10/02 07:50:38;;;;;;;8.45;2.20;;;15.70;86.20;;;;;;5056523;28;20112;-75
2022/10/02 07:53:15;;;;;;;4.68;2.20;;;15.70;86.20;;;;;;5051763;28;20036;-74
2022/10/02 07:55:47;;;;;;;1.77;1.10;;;15.70;86.10;;;;;;5056747;28;20487;-69
2022/10/02 07:58:21;;;;;;;2.55;1.40;;;15.80;85.90;;;;;;5056004;28;20021;-69
2022/10/02 08:01:00;;;;;;;6.45;1.45;;;15.90;85.90;;;;;;5056827;28;20103;-75
2022/10/02 08:03:38;;;;;;;8.88;1.70;;;15.90;85.70;;;;;;5065277;28;20437;-69
2022/10/02 08:06:05;;;;;;;2.80;1.30;;;16.00;85.50;;;;;;5056520;28;20460;-69
2022/10/02 08:08:59;;;;;;;2.50;1.38;;;16.10;85.40;;;;;;5060309;28;20775;-69
2022/10/02 08:11:37;;;;;;;2.88;1.33;;;16.20;85.10;;;;;;5053632;28;20033;-69
2022/10/02 08:14:27;;;;;;;2.72;1.20;;;16.30;85.10;;;;;;5053586;28;20417;-77
2022/10/02 08:16:56;;;;;;;14.32;1.20;;;16.30;85.00;;;;;;5057447;28;20329;-76
2022/10/02 08:19:47;;;;;;;2.45;1.17;;;16.30;85.00;;;;;;5061335;28;20115;-76
2022/10/02 08:22:37;;;;;;;2.75;1.40;;;16.40;84.90;;;;;;5063777;28;20099;-77
2022/10/02 08:25:14;;;;;;;4.65;1.58;;;16.40;85.00;;;;;;5054495;28;20029;-76
2022/10/02 08:27:54;;;;;;;3.75;1.58;;;16.50;84.90;;;;;;5067223;28;20028;-77
2022/10/02 08:30:20;;;;;;;5.55;1.73;;;16.60;84.60;;;;;;5063418;28;20016;-77
2022/10/02 08:32:46;;;;;;;4.57;1.30;;;16.70;84.40;;;;;;5066884;28;20103;-76
2022/10/02 08:35:18;;;;;;;3.45;1.40;;;16.80;84.00;;;;;;5068267;28;20028;-77
2022/10/02 08:37:59;;;;;;;2.13;1.05;;;16.80;84.00;;;;;;5064916;28;20038;-77
2022/10/02 08:40:56;;;;;;;1.48;0.90;;;16.80;84.00;;;;;;5032021;28;20029;-77
2022/10/02 08:43:57;;;;;;;3.15;1.10;;;16.90;83.80;;;;;;5053988;28;20423;-70
2022/10/02 08:46:44;;;;;;;1.27;1.10;;;17.10;83.60;;;;;;5049606;28;20406;-74
2022/10/02 08:49:35;;;;;;;8.65;1.45;;;17.10;83.40;;;;;;5067486;28;20060;-70
2022/10/02 08:52:16;;;;;;;1.85;0.93;;;17.20;83.30;;;;;;5058206;28;20588;-71
2022/10/02 08:55:19;;;;;;;2.30;0.82;;;17.30;83.00;;;;;;5067201;28;20025;-70
2022/10/02 08:58:00;;;;;;;1.30;0.82;;;17.30;82.70;;;;;;5069218;28;20025;-70
2022/10/02 09:00:54;;;;;;;4.00;1.27;;;17.30;82.70;;;;;;5064977;28;20078;-75
2022/10/02 09:03:58;;;;;;;0.75;0.75;;;17.50;82.70;;;;;;5069243;28;20033;-68
2022/10/02 09:07:01;;;;;;;2.28;0.98;;;17.60;81.90;;;;;;5068174;28;20039;-69
2022/10/02 09:09:56;;;;;;;1.10;0.70;;;17.70;81.70;;;;;;5069884;28;20029;-69
2022/10/02 09:12:57;;;;;;;3.05;0.82;;;17.80;81.60;;;;;;5050950;28;20036;-69
2022/10/02 09:15:37;;;;;;;8.13;1.63;;;18.00;81.10;;;;;;5064461;28;20082;-69
2022/10/02 09:18:06;;;;;;;3.08;0.88;;;18.10;80.60;;;;;;5055419;28;20375;-70
2022/10/02 09:20:42;;;;;;;0.75;0.68;;;18.10;80.50;;;;;;5063130;28;20029;-70
2022/10/02 09:23:55;;;;;;;1.40;0.98;;;18.10;80.10;;;;;;5069459;28;20024;-70
2022/10/02 09:26:26;;;;;;;2.35;1.02;;;18.10;79.90;;;;;;5065253;28;20411;-70
2022/10/02 09:29:14;;;;;;;2.33;1.55;;;18.10;79.40;;;;;;5049769;28;20119;-69
2022/10/02 09:32:01;;;;;;;9.75;1.50;;;18.10;79.00;;;;;;5061108;28;20032;-69
2022/10/02 09:35:06;;;;;;;1.95;0.80;;;18.20;79.20;;;;;;5063046;28;20036;-70
2022/10/02 09:37:49;;;;;;;2.28;1.42;;;18.20;78.50;;;;;;5060797;28;20017;-75
2022/10/02 09:40:33;;;;;;;2.42;1.33;;;18.30;78.60;;;;;;5059308;28;20035;-70
2022/10/02 09:43:20;;;;;;;1.95;0.88;;;18.30;78.40;;;;;;5054515;28;20031;-70
2022/10/02 09:46:01;;;;;;;5.22;1.52;;;18.40;78.20;;;;;;5067362;28;20051;-70
2022/10/02 09:49:07;;;;;;;2.28;0.95;;;18.40;77.80;;;;;;5060382;28;20044;-70
2022/10/02 09:51:35;;;;;;;3.83;1.08;;;18.50;77.90;;;;;;5036761;28;20028;-70
2022/10/02 09:54:40;;;;;;;2.70;1.30;;;18.50;77.30;;;;;;5067734;28;20391;-70
2022/10/02 09:57:43;;;;;;;3.75;1.40;;;18.40;75.90;;;;;;5066693;28;20037;-74
2022/10/02 10:00:21;;;;;;;2.70;1.35;;;18.40;76.20;;;;;;5058195;28;20739;-75
2022/10/02 10:03:11;;;;;;;3.17;1.25;;;18.50;76.20;;;;;;5061100;28;20040;-75
2022/10/02 10:06:17;;;;;;;5.88;1.17;;;18.70;75.40;;;;;;5036974;28;20355;-74
2022/10/02 10:09:03;;;;;;;1.95;1.27;;;18.80;75.20;;;;;;5061553;28;20021;-74
2022/10/02 10:11:46;;;;;;;10.05;1.48;;;19.00;74.80;;;;;;5057052;28;20028;-75
2022/10/02 10:14:30;;;;;;;;;;;19.20;74.30;;;;;;5063578;28;20126;-74
2022/10/02 10:17:20;;;;;;;2.40;1.38;;;19.50;73.00;;;;;;5062852;28;19954;-74
2022/10/02 10:20:08;;;;;;;5.57;1.75;;;19.50;71.50;;;;;;5068671;28;20077;-74
2022/10/02 10:23:11;;;;;;;1.08;0.60;;;19.50;71.40;;;;;;5047081;28;20028;-74
2022/10/02 10:25:52;;;;;;;4.72;0.80;;;19.60;72.10;;;;;;5005079;28;20608;-75
2022/10/02 10:28:32;;;;;;;2.28;0.95;;;19.80;71.80;;;;;;5057128;28;20094;-70
2022/10/02 10:31:14;;;;;;;3.15;1.35;;;19.80;71.10;;;;;;5062655;28;20553;-71
2022/10/02 10:33:46;;;;;;;0.82;0.65;;;19.80;71.10;;;;;;5057253;28;20441;-71
2022/10/02 10:40:00;;;;;;;7.55;1.58;;;19.50;69.50;;;;;;5053923;28;20076;-70
2022/10/02 10:42:40;;;;;;;2.03;0.90;;;19.60;70.20;;;;;;5060281;28;20064;-70
2022/10/02 10:45:40;;;;;;;3.00;1.13;;;19.80;70.00;;;;;;5061557;28;20467;-70
2022/10/02 10:48:25;;;;;;;2.83;1.27;;;20.00;69.20;;;;;;5061644;28;20044;-70
2022/10/02 10:51:00;;;;;;;5.70;0.90;;;20.10;68.20;;;;;;5041001;28;20119;-70
2022/10/02 10:53:32;;;;;;;1.50;0.80;;;20.00;67.40;;;;;;5038219;28;20062;-70
2022/10/02 10:55:58;;;;;;;1.30;0.70;;;19.80;67.40;;;;;;5061333;28;20055;-71
2022/10/02 10:58:54;;;;;;;1.13;0.80;;;19.80;67.90;;;;;;5063284;28;20021;-70
2022/10/02 11:01:42;;;;;;;1.15;0.73;;;19.90;67.20;;;;;;5059613;28;21389;-70
2022/10/02 11:04:30;;;;;;;2.95;0.80;;;19.90;67.00;;;;;;5061539;28;20106;-70
2022/10/02 11:07:20;;;;;;;1.00;0.90;;;19.70;64.90;;;;;;5040260;28;20025;-70
2022/10/02 11:10:04;;;;;;;0.70;0.70;;;19.70;65.30;;;;;;5063014;28;20487;-70
2022/10/02 11:12:40;;;;;;;1.50;0.70;;;19.80;65.40;;;;;;5064652;28;20016;-71
2022/10/02 11:15:24;;;;;;;1.42;0.70;;;19.70;64.90;;;;;;5062331;28;20470;-70
2022/10/02 11:18:05;;;;;;;1.73;1.15;;;19.70;65.00;;;;;;5054641;28;20503;-70
2022/10/02 11:20:58;;;;;;;4.43;1.17;;;19.60;64.90;;;;;;5063058;28;20025;-70
2022/10/02 11:23:43;;;;;;;;;;;19.60;65.70;;;;;;5062735;28;20115;-71
2022/10/02 11:26:12;;;;;;;3.10;1.60;;;19.50;64.60;;;;;;5015609;28;19909;-70
2022/10/02 11:28:37;;;;;;;1.70;1.10;;;19.50;64.70;;;;;;5058119;28;20043;-70
2022/10/02 11:31:17;;;;;;;4.45;0.93;;;19.80;64.20;;;;;;5055102;28;20029;-70
2022/10/02 11:34:23;;;;;;;2.65;0.60;;;20.10;63.70;;;;;;5048722;28;20503;-70
2022/10/02 11:37:30;;;;;;;3.58;0.60;;;20.30;63.30;;;;;;5049409;28;20028;-70
2022/10/02 11:40:12;;;;;;;0.82;0.60;;;20.40;63.70;;;;;;5049514;28;20457;-71
2022/10/02 11:42:41;;;;;;;;;;;20.50;64.00;;;;;;5063258;28;20021;-73
2022/10/02 11:45:17;;;;;;;0.60;0.60;;;20.40;63.80;;;;;;5042032;28;19909;-70
2022/10/02 11:48:32;;;;;;;1.25;0.80;;;20.40;64.30;;;;;;5056599;28;20020;-70
2022/10/02 11:51:29;;;;;;;5.10;1.33;;;20.30;63.40;;;;;;4986123;28;20137;-70
2022/10/02 11:54:17;;;;;;;1.98;1.25;;;20.20;63.00;;;;;;5022616;28;20083;-71
2022/10/02 11:57:13;;;;;;;3.83;0.70;;;19.90;63.20;;;;;;5061753;28;20036;-71
2022/10/02 12:00:05;;;;;;;2.33;1.33;;;19.80;64.60;;;;;;5061181;28;20479;-71
2022/10/02 12:02:40;;;;;;;0.70;0.70;;;19.80;65.20;;;;;;5056137;28;20020;-74
2022/10/02 12:05:34;;;;;;;2.08;0.88;;;19.90;65.60;;;;;;5066027;28;20566;-74
2022/10/02 12:08:23;;;;;;;0.75;0.60;;;20.10;65.90;;;;;;5042898;28;20044;-74
2022/10/02 12:11:05;;;;;;;0.95;0.73;;;20.10;65.50;;;;;;5063681;28;20033;-70
2022/10/02 12:13:30;;;;;;;;;;;20.10;65.40;;;;;;5066210;28;20078;-71
2022/10/02 12:16:11;;;;;;;4.20;1.08;;;20.00;65.40;;;;;;5066457;28;19908;-71
2022/10/02 12:18:56;;;;;;;2.38;0.93;;;19.80;65.00;;;;;;5048780;28;20025;-74
2022/10/02 12:28:01;;;;;;;4.53;1.10;;;19.70;65.70;;;;;;5067068;28;20035;-74
2022/10/02 12:30:43;;;;;;;7.13;0.88;;;20.00;65.20;;;;;;5070839;28;20039;-74
2022/10/02 12:33:57;;;;;;;0.70;0.47;;;20.30;63.30;;;;;;5068458;28;20028;-75
2022/10/02 12:36:32;;;;;;;2.92;1.25;;;20.60;61.50;;;;;;5056253;28;20033;-74
2022/10/02 12:39:23;;;;;;;0.95;0.75;;;20.90;60.60;;;;;;5069946;28;20047;-76
2022/10/02 12:41:58;;;;;;;1.67;1.35;;;21.10;60.00;;;;;;5070022;28;20028;-75
2022/10/02 12:44:49;;;;;;;0.57;0.50;;;21.30;59.50;;;;;;5062667;28;20033;-74
2022/10/02 12:47:39;;;;;;;0.73;0.73;;;21.50;58.90;;;;;;5046720;28;20056;-75
2022/10/02 12:50:51;;;;;;;4.53;0.73;;;21.50;58.00;;;;;;5067974;28;20108;-74
2022/10/02 12:53:38;;;;;;;0.90;0.52;;;21.60;57.40;;;;;;5062657;28;20384;-75
2022/10/02 12:56:25;;;;;;;1.15;0.98;;;21.70;56.60;;;;;;5068640;28;20122;-73
2022/10/02 12:59:14;;;;;;;2.38;1.30;;;21.80;57.00;;;;;;5048048;28;20029;-74
2022/10/02 13:02:06;;;;;;;1.30;0.85;;;21.70;55.30;;;;;;5058379;28;20024;-75
2022/10/02 13:04:40;;;;;;;1.35;0.63;;;21.70;55.50;;;;;;5062405;28;20085;-74
2022/10/02 13:07:18;;;;;;;1.90;0.70;;;21.40;54.20;;;;;;5069198;28;20028;-73
2022/10/02 13:09:56;;;;;;;1.27;1.00;;;21.40;55.60;;;;;;5067013;28;20328;-73
2022/10/02 13:12:31;;;;;;;2.67;0.88;;;21.40;56.20;;;;;;5066303;28;20028;-76
2022/10/02 13:15:34;;;;;;;2.92;0.88;;;21.60;56.10;;;;;;5065038;28;20056;-74
2022/10/02 13:18:08;;;;;;;1.92;0.52;;;21.80;55.40;;;;;;5064846;28;20041;-78
2022/10/02 13:20:44;;;;;;;1.00;0.95;;;21.80;54.80;;;;;;5068573;28;20033;-79
2022/10/02 13:23:45;;;;;;;0.85;0.70;;;21.90;55.40;;;;;;5068835;28;20029;-78
2022/10/02 13:26:34;;;;;;;1.63;0.88;;;22.30;55.60;;;;;;5068299;28;20033;-78
2022/10/02 13:29:11;;;;;;;1.35;0.85;;;22.80;55.40;;;;;;5049167;28;20031;-72
2022/10/02 13:32:08;;;;;;;5.82;1.00;;;23.00;54.00;;;;;;5050354;28;20032;-74
2022/10/02 13:34:36;;;;;;;1.02;0.60;;;22.90;53.30;;;;;;5067601;28;20115;-71
2022/10/02 13:37:16;;;;;;;2.08;1.20;;;22.50;53.50;;;;;;5065256;28;20138;-76
2022/10/02 13:40:34;;;;;;;1.42;0.80;;;22.60;53.70;;;;;;5044861;28;20033;-75
2022/10/02 13:43:41;;;;;;;2.55;0.55;;;22.40;53.00;;;;;;5031359;28;20070;-76
2022/10/02 13:46:25;;;;;;;0.95;0.77;;;22.40;53.60;;;;;;4962109;28;20055;-77
2022/10/02 13:49:12;;;;;;;3.20;0.60;;;23.20;52.60;;;;;;5060798;28;20048;-70
2022/10/02 13:52:04;;;;;;;0.70;0.70;;;23.90;51.40;;;;;;5060920;28;20510;-70
2022/10/02 13:54:48;;;;;;;2.05;0.65;;;25.30;49.80;;;;;;5062475;28;20327;-71
2022/10/02 13:57:55;;;;;;;0.60;0.52;;;26.70;48.20;;;;;;5059683;28;20332;-71
2022/10/02 14:00:36;;;;;;;0.95;0.40;;;28.70;45.00;;;;;;5041184;28;20438;-71
2022/10/02 14:03:17;;;;;;;2.42;0.82;;;30.40;42.10;;;;;;5044868;28;20017;-71
2022/10/02 14:05:53;;;;;;;0.75;0.68;;;31.30;40.70;;;;;;5059974;28;20054;-72
2022/10/02 14:08:51;;;;;;;1.23;0.63;;;32.00;38.70;;;;;;5037226;28;20021;-70
2022/10/02 14:11:36;;;;;;;0.50;0.50;;;30.90;38.50;;;;;;5056662;28;20033;-69
2022/10/02 14:14:20;;;;;;;1.65;0.95;;;29.10;40.90;;;;;;5056598;28;20390;-70
2022/10/02 14:17:18;;;;;;;0.82;0.50;;;27.60;41.30;;;;;;5059570;28;20415;-70
2022/10/02 14:20:17;;;;;;;1.55;0.70;;;26.10;43.20;;;;;;5042813;28;20025;-70
2022/10/02 14:22:52;;;;;;;1.10;0.52;;;24.60;45.60;;;;;;5054865;28;20020;-71